CheckWX is a tool to help pilots better visualize weather data.  It is not intended as a substitute for an official pre-flight weather briefing.

11:22:13 UTC

KRBL TAF
Red Bluff Municipal Airport
Red Bluff, California, USA
KRBL 230520Z 2306/2406 32005KT P6SM BKN200 FM232300 36004KT 4SM -RA OVC050 FM240400 30003KT P6SM VCSH OVC025

Jan-23@
06:00 UTC

Jan-23 @ 06:00 UTC

Jan-23@
23:00 UTC

Jan-23 @ 23:00 UTC

KRBL 230520Z 2306/2406 32005KT P6SM BKN200
Wind
  • 320° at 5 KTS
Cloud Levels
  • Broken at 20,000' AGL

Jan-23@
23:00 UTC

Jan-23 @ 23:00 UTC

Jan-24@
04:00 UTC

Jan-24 @ 04:00 UTC

FM232300 36004KT 4SM -RA OVC050

From

From Standard forecast or significant change

Wind
  • 360° at 4 KTS
Conditions
Light Rain
Cloud Levels
  • Overcast at 5,000' AGL

Jan-24@
04:00 UTC

Jan-24 @ 04:00 UTC

Jan-24@
06:00 UTC

Jan-24 @ 06:00 UTC

FM240400 30003KT P6SM VCSH OVC025

From

From Standard forecast or significant change

Wind
  • 300° at 3 KTS
Cloud Levels
  • Overcast at 2,500' AGL